Latest Weather Observations for Mount Baw Baw

IDV60801

Issued at 10:42 am EST Thursday 25 April 2024 (issued every 10 minutes, with the page automatically refreshed every 10 minutes)

About weather observations | Map of weather stations | Latest weather observations for VIC | Other Formats
Station Details ID: 085291 Name: MOUNT BAW BAW Lat: -37.84 Lon: 146.27 Height: 1561.0 m
Data from the previous 72 hours. | See also: Recent months at Mount Baw Baw
Date/Time
EST
Temp
°C
App
Temp
°C
Dew
Point
°C
Rel
Hum
%
Delta-T
°C
Wind Press
QNH
hPa
Press
MSL
hPa
Rain since
9am
mm
Dir  Spd
km/h
Gust
km/h
Spd
kts
Gust
kts
25/10:35am 1.9 -5.9 1.9 100 0.0 SW 32 50 17 27 - - 3.4
25/10:30am 2.0 -5.9 2.0 100 0.0 SW 33 48 18 26 - - 3.4
25/10:03am 2.1 -5.3 2.1 100 0.0 SW 30 50 16 27 - - 2.0
25/10:00am 2.2 -5.5 2.2 100 0.0 SW 32 44 17 24 - - 1.6
25/09:30am 2.0 -5.9 2.0 100 0.0 SW 33 44 18 24 - - 0.6
25/09:00am 1.7 -6.7 1.7 100 0.0 SW 35 56 19 30 - - 9.2
25/08:30am 1.7 -5.7 1.7 100 0.0 SW 30 48 16 26 - - 9.0
25/08:00am 1.6 -6.8 1.6 100 0.0 SW 35 56 19 30 - - 9.0
25/07:30am 1.5 -7.3 1.5 100 0.0 SW 37 61 20 33 - - 9.0
25/07:00am 1.4 -6.4 1.4 100 0.0 SW 32 56 17 30 - - 9.0
25/06:36am 1.7 -6.3 1.7 100 0.0 SW 33 52 18 28 - - 8.8
25/06:30am 1.7 -6.3 1.7 100 0.0 SW 33 50 18 27 - - 8.8
25/06:05am 1.9 -6.1 1.9 100 0.0 SW 33 52 18 28 - - 7.8
25/06:00am 1.9 -6.4 1.9 100 0.0 SW 35 52 19 28 - - 7.8
25/05:32am 1.8 -6.2 1.8 100 0.0 SW 33 52 18 28 - - 7.8
25/05:30am 1.8 -6.2 1.8 100 0.0 SW 33 50 18 27 - - 7.8
25/05:00am 1.9 -5.1 1.9 100 0.0 SW 28 48 15 26 - - 7.0
25/04:35am 1.6 -5.5 1.6 100 0.0 SW 28 46 15 25 - - 6.8
25/04:30am 1.6 -5.5 1.6 100 0.0 SW 28 44 15 24 - - 6.8
25/04:00am 1.7 -5.7 1.7 100 0.0 WSW 30 48 16 26 - - 6.8
25/03:57am 1.6 -5.8 1.6 100 0.0 SW 30 48 16 26 - - 6.8
25/03:30am 1.7 -5.3 1.7 100 0.0 SW 28 41 15 22 - - 6.8
25/03:14am 1.6 -5.5 1.6 100 0.0 WSW 28 46 15 25 - - 6.8
25/03:00am 1.6 -5.8 1.6 100 0.0 SW 30 46 16 25 - - 6.8
25/02:30am 1.6 -5.8 1.6 100 0.0 SW 30 44 16 24 - - 6.6
25/02:00am 1.6 -5.1 1.6 100 0.0 WSW 26 39 14 21 - - 6.6
25/01:48am 1.5 -5.6 1.5 100 0.0 WSW 28 46 15 25 - - 6.6
25/01:30am 1.1 -5.3 1.1 100 0.0 WSW 24 37 13 20 - - 6.4
25/01:00am 0.8 -6.0 0.8 100 0.0 SW 26 39 14 21 - - 6.4
25/12:30am 0.8 -5.6 0.8 100 0.0 WSW 24 33 13 18 - - 6.4
25/12:00am 0.6 -5.9 0.6 100 0.0 WSW 24 33 13 18 - - 6.4
 
Date/Time
EST
Temp
°C
App
Temp
°C
Dew
Point
°C
Rel
Hum
%
Delta-T
°C
Wind Press
QNH
hPa
Press
MSL
hPa
Rain since
9am
mm
Dir  Spd
km/h
Gust
km/h
Spd
kts
Gust
kts
24/11:30pm 0.8 -5.6 0.8 100 0.0 SW 24 37 13 20 - - 6.4
24/11:00pm 0.9 -4.7 0.9 100 0.0 SW 20 32 11 17 - - 6.2
24/10:30pm 0.9 -5.1 0.9 100 0.0 WSW 22 32 12 17 - - 6.0
24/10:00pm 0.9 -5.1 0.9 100 0.0 SW 22 32 12 17 - - 6.0
24/09:30pm 0.8 -5.6 0.8 100 0.0 SW 24 35 13 19 - - 5.6
24/09:00pm 0.7 -5.4 0.7 100 0.0 SW 22 33 12 18 - - 5.4
24/08:30pm 0.5 -5.6 0.5 100 0.0 SW 22 32 12 17 - - 5.2
24/08:00pm 0.6 -5.9 0.6 100 0.0 SW 24 32 13 17 - - 4.8
24/07:30pm 0.6 -5.9 0.6 100 0.0 SW 24 37 13 20 - - 4.8
24/07:00pm 0.5 -6.3 0.5 100 0.0 SW 26 41 14 22 - - 4.6
24/06:30pm 0.3 -7.0 0.3 100 0.0 SW 28 46 15 25 - - 4.4
24/06:12pm 0.3 -7.0 0.3 100 0.0 SW 28 48 15 26 - - 4.4
24/06:00pm 0.3 -7.3 0.3 100 0.0 SW 30 41 16 22 - - 4.4
24/05:48pm 0.4 -7.6 0.4 100 0.0 SW 32 54 17 29 - - 4.4
24/05:30pm 0.6 -7.0 0.6 100 0.0 SW 30 46 16 25 - - 4.4
24/05:00pm 0.9 -6.3 0.9 100 0.0 SW 28 50 15 27 - - 4.4
24/04:30pm 1.0 -6.2 1.0 100 0.0 SW 28 46 15 25 - - 3.6
24/04:00pm 0.7 -6.5 0.7 100 0.0 SW 28 46 15 25 - - 3.6
24/03:30pm 0.5 -6.7 0.5 100 0.0 SW 28 48 15 26 - - 3.2
24/03:08pm 0.7 -6.5 0.7 100 0.0 SW 28 46 15 25 - - 2.4
24/03:00pm 0.7 -6.1 0.7 100 0.0 SW 26 43 14 23 - - 1.8
24/02:30pm 0.4 -6.5 0.4 100 0.0 SW 26 41 14 22 - - 1.6
24/02:00pm 0.5 -5.6 0.5 100 0.0 SW 22 35 12 19 - - 1.2
24/01:30pm 0.6 -7.4 0.6 100 0.0 SW 32 54 17 29 - - 1.2
24/01:15pm 0.7 -6.5 0.7 100 0.0 SW 28 46 15 25 - - 0.8
24/01:00pm 0.9 -6.6 0.9 100 0.0 SW 30 43 16 23 - - 0.8
24/12:30pm 0.9 -6.3 0.9 100 0.0 SW 28 43 15 23 - - 0.8
24/12:00pm 1.0 -6.5 1.0 100 0.0 SW 30 54 16 29 - - 0.8
24/11:30am 0.5 -6.7 0.5 100 0.0 SW 28 46 15 25 - - 0.8
24/11:06am 0.5 -7.1 0.5 100 0.0 SW 30 50 16 27 - - 0.8
24/11:00am 0.4 -6.5 0.4 100 0.0 SW 26 43 14 23 - - 0.6
24/10:30am 0.2 -7.1 0.2 100 0.0 SW 28 48 15 26 - - 0.6
24/10:00am 0.4 -7.8 0.4 100 0.0 SW 33 61 18 33 - - 0.6
24/09:30am 0.2 -8.8 0.2 100 0.0 SW 37 59 20 32 - - 0.6
24/09:00am 0.5 -7.5 0.5 100 0.0 SW 32 52 17 28 - - 25.4
24/08:30am 0.3 -7.9 0.3 100 0.0 SW 33 65 18 35 - - 23.2
24/08:00am 0.6 -7.4 0.6 100 0.0 SW 32 61 17 33 - - 22.0
24/07:30am 0.8 -6.8 0.8 100 0.0 SW 30 54 16 29 - - 21.8
24/07:00am 0.8 -7.7 0.8 100 0.0 SW 35 59 19 32 - - 20.6
24/06:30am 1.0 -7.9 1.0 100 0.0 SW 37 63 20 34 - - 19.8
24/06:00am 1.0 -7.5 1.0 100 0.0 WSW 35 65 19 35 - - 18.4
24/05:30am 0.9 -7.0 0.9 100 0.0 WSW 32 52 17 28 - - 17.8
24/05:00am 0.6 -8.3 0.6 100 0.0 WSW 37 59 20 32 - - 17.6
24/04:30am 0.7 -6.5 0.7 100 0.0 WSW 28 46 15 25 - - 17.6
24/04:01am 0.7 -6.9 0.7 100 0.0 WSW 30 48 16 26 - - 17.6
24/04:00am 0.7 -6.9 0.7 100 0.0 WSW 30 46 16 25 - - 17.6
24/03:38am 1.0 -6.2 1.0 100 0.0 WSW 28 50 15 27 - - 17.4
24/03:30am 0.9 -5.5 0.9 100 0.0 WSW 24 39 13 21 - - 17.4
24/03:00am 1.3 -5.4 1.3 100 0.0 WSW 26 46 14 25 - - 17.4
24/02:36am 2.1 -4.9 2.1 100 0.0 W 28 48 15 26 - - 17.2
24/02:30am 2.2 -4.4 2.2 100 0.0 WSW 26 43 14 23 - - 16.8
24/02:00am 3.0 -2.7 3.0 100 0.0 WSW 22 46 12 25 - - 15.0
24/01:30am 4.1 -1.8 4.1 100 0.0 WSW 24 41 13 22 - - 7.8
24/01:00am 5.8 1.2 5.8 100 0.0 WSW 19 39 10 21 - - 2.2
24/12:30am 5.7 1.1 5.7 100 0.0 W 19 35 10 19 - - 1.2
24/12:00am 6.7 2.0 5.0 89 0.8 W 19 37 10 20 - - 0.8
 
Date/Time
EST
Temp
°C
App
Temp
°C
Dew
Point
°C
Rel
Hum
%
Delta-T
°C
Wind Press
QNH
hPa
Press
MSL
hPa
Rain since
9am
mm
Dir  Spd
km/h
Gust
km/h
Spd
kts
Gust
kts
23/11:30pm 7.3 2.9 4.8 84 1.2 NW 17 33 9 18 - - 0.2
23/11:00pm 9.5 4.4 2.8 63 3.1 N 19 43 10 23 - - 0.0
23/10:30pm 9.4 4.1 2.9 64 3.1 NNE 20 46 11 25 - - 0.0
23/10:00pm 9.2 4.6 3.6 68 2.7 N 17 37 9 20 - - 0.0
23/09:30pm 9.4 4.4 3.4 66 2.9 N 19 35 10 19 - - 0.0
23/09:00pm 9.4 4.8 3.6 67 2.8 N 17 35 9 19 - - 0.0
23/08:30pm 9.1 4.9 3.9 70 2.5 N 15 28 8 15 - - 0.0
23/08:00pm 9.0 4.9 4.2 72 2.3 N 15 33 8 18 - - 0.0
23/07:30pm 8.9 5.2 4.5 74 2.1 NNE 13 28 7 15 - - 0.0
23/07:00pm 9.0 5.4 4.8 75 2.1 NNE 13 26 7 14 - - 0.0
23/06:30pm 9.0 5.7 4.8 75 2.1 NNE 11 22 6 12 - - 0.0
23/06:00pm 9.0 5.4 5.0 76 2.0 NNE 13 20 7 11 - - 0.0
23/05:30pm 9.1 5.5 4.9 75 2.1 NNE 13 28 7 15 - - 0.0
23/05:00pm 9.2 6.0 5.0 75 2.1 NNE 11 22 6 12 - - 0.0
23/04:30pm 9.6 6.0 5.0 73 2.3 NNE 13 24 7 13 - - 0.0
23/04:00pm 9.7 6.0 4.7 71 2.5 NNE 13 28 7 15 - - 0.0
23/03:30pm 10.2 6.1 4.4 67 2.8 N 15 37 8 20 - - 0.0
23/03:00pm 10.8 6.7 4.3 64 3.2 N 15 26 8 14 - - 0.0
23/02:30pm 11.0 6.5 4.2 63 3.3 N 17 33 9 18 - - 0.0
23/02:00pm 11.4 7.3 4.4 62 3.5 NNE 15 30 8 16 - - 0.0
23/01:30pm 11.0 6.4 3.8 61 3.5 N 17 30 9 16 - - 0.0
23/01:00pm 11.6 6.7 4.1 60 3.7 N 19 44 10 24 - - 0.0
23/12:30pm 11.1 6.2 3.9 61 3.5 N 19 32 10 17 - - 0.0
23/12:00pm 11.8 8.1 4.3 60 3.7 N 13 30 7 16 - - 0.0
23/11:30am 11.2 6.7 4.0 61 3.5 N 17 33 9 18 - - 0.0
23/11:00am 10.8 6.1 3.1 59 3.7 N 17 30 9 16 - - 0.0
23/10:30am 11.0 6.7 3.5 60 3.6 N 15 33 8 18 - - 0.0
23/10:00am 9.9 5.0 2.0 58 3.7 NNW 17 30 9 16 - - 0.0
23/09:30am 9.5 4.6 1.9 59 3.5 NNW 17 43 9 23 - - 0.0
23/09:00am 9.1 3.9 0.3 54 3.9 NNW 17 28 9 15 - - 0.0
23/08:30am 8.9 3.2 -0.7 51 4.1 NNW 19 35 10 19 - - 0.0
23/08:00am 8.7 3.3 -1.7 48 4.4 NNW 17 39 9 21 - - 0.0
23/07:30am 8.9 3.3 -2.7 44 4.8 NNW 17 28 9 15 - - 0.0
23/07:00am 8.9 3.4 -5.0 37 5.4 NNW 15 30 8 16 - - 0.0
23/06:30am 8.8 3.0 -4.7 38 5.3 NNW 17 32 9 17 - - 0.0
23/06:00am 8.7 2.6 -4.1 40 5.1 NNW 19 33 10 18 - - 0.0
23/05:30am 8.9 2.7 -5.3 36 5.5 NW 19 39 10 21 - - 0.0
23/05:00am 9.1 3.0 -7.5 30 6.1 NNW 17 39 9 21 - - 0.0
23/04:30am 8.8 2.7 -7.8 30 6.1 NNW 17 30 9 16 - - 0.0
23/04:00am 9.2 3.3 -10.3 24 6.8 N 15 33 8 18 - - 0.0
23/03:30am 9.2 2.9 -10.3 24 6.8 N 17 35 9 19 - - 0.0
23/03:00am 9.8 3.4 -12.1 20 7.3 N 17 28 9 15 - - 0.0
23/02:30am 10.0 3.4 -14.6 16 7.8 N 17 30 9 16 - - 0.0
23/02:00am 9.7 3.4 -17.3 13 8.0 N 15 30 8 16 - - 0.0
23/01:30am 9.7 3.2 -14.1 17 7.6 N 17 30 9 16 - - 0.0
23/01:00am 9.1 2.9 -13.9 18 7.3 N 15 24 8 13 - - 0.0
23/12:30am 9.3 3.5 -13.8 18 7.4 NNE 13 24 7 13 - - 0.0
23/12:00am 9.6 3.8 -14.9 16 7.7 NNE 13 20 7 11 - - 0.0
 
Date/Time
EST
Temp
°C
App
Temp
°C
Dew
Point
°C
Rel
Hum
%
Delta-T
°C
Wind Press
QNH
hPa
Press
MSL
hPa
Rain since
9am
mm
Dir  Spd
km/h
Gust
km/h
Spd
kts
Gust
kts
22/11:30pm 9.8 4.1 -12.1 20 7.3 NNE 13 20 7 11 - - 0.0
22/11:00pm 10.6 5.1 -9.6 23 7.2 N 13 26 7 14 - - 0.0
22/10:30pm 11.1 6.0 -9.8 22 7.5 N 11 19 6 10 - - 0.0
22/10:00pm 10.7 5.5 -10.7 21 7.5 N 11 24 6 13 - - 0.0
22/09:30pm 10.7 5.2 -16.6 13 8.4 NNW 11 17 6 9 - - 0.0
22/09:00pm 10.5 4.9 -18.7 11 8.5 NNW 11 17 6 9 - - 0.0
22/08:30pm 10.3 5.1 -17.8 12 8.3 NNW 9 20 5 11 - - 0.0
22/08:00pm 10.3 5.2 -15.2 15 8.0 NW 9 17 5 9 - - 0.0
22/07:30pm 9.8 4.4 -13.4 18 7.5 W 11 19 6 10 - - 0.0
22/07:00pm 9.8 4.4 -14.8 16 7.7 WSW 11 19 6 10 - - 0.0
22/06:30pm 10.3 4.8 -15.2 15 8.0 W 11 20 6 11 - - 0.0
22/06:00pm 10.4 5.1 -12.2 19 7.6 WNW 11 20 6 11 - - 0.0
22/05:30pm 10.8 5.7 -10.0 22 7.4 NW 11 20 6 11 - - 0.0
22/05:00pm 11.7 6.2 -9.3 22 7.7 W 13 22 7 12 - - 0.0
22/04:30pm 12.6 7.5 -5.4 28 7.3 W 13 22 7 12 - - 0.0
22/04:00pm 13.4 8.3 -5.2 27 7.6 W 13 22 7 12 - - 0.0
22/03:30pm 13.9 8.8 -4.8 27 7.7 W 13 22 7 12 - - 0.0
22/03:00pm 14.0 8.9 -5.2 26 7.9 W 13 24 7 13 - - 0.0
22/02:30pm 13.8 8.5 -6.9 23 8.2 W 13 26 7 14 - - 0.0
22/02:00pm 14.3 9.2 -5.4 25 8.1 WNW 13 26 7 14 - - 0.0
22/01:30pm 13.4 8.1 -7.3 23 8.1 WNW 13 24 7 13 - - 0.0
22/01:00pm 13.2 7.8 -8.6 21 8.2 W 13 26 7 14 - - 0.0
22/12:30pm 13.2 7.6 -6.4 25 7.8 W 15 24 8 13 - - 0.0
22/12:00pm 13.3 7.9 -8.5 21 8.3 W 13 26 7 14 - - 0.0
22/11:30am 13.1 8.0 -9.3 20 8.3 WNW 11 19 6 10 - - 0.0
22/11:00am 12.8 7.2 -10.9 18 8.5 WNW 13 20 7 11 - - 0.0

Other formats

Comma delimited format used in spreadsheet applications
http://www.bom.gov.au/fwo/IDV60801/IDV60801.95901.axf

JavaScript Object Notation format (JSON) in row-major order
http://www.bom.gov.au/fwo/IDV60801/IDV60801.95901.json

Data quality

Most of these data are generated automatically and are frequently updated. Quality checks on data are not normally performed. It is possible for incorrect values to appear. Refer to information at About Latest Weather Observations and please check the disclaimer before using these data.